sensor_id;sensor_type;location;lat;lon;timestamp;temperature;humidity
51982;DHT22;37998;53.416;6.730;2022-09-09T00:00:32;16.00;99.90
51982;DHT22;37998;53.416;6.730;2022-09-09T00:03:12;16.00;99.90
51982;DHT22;37998;53.416;6.730;2022-09-09T00:06:02;16.00;99.90
51982;DHT22;37998;53.416;6.730;2022-09-09T00:08:51;16.00;99.90
51982;DHT22;37998;53.416;6.730;2022-09-09T00:14:32;15.90;99.90
51982;DHT22;37998;53.416;6.730;2022-09-09T00:17:08;16.10;99.90
51982;DHT22;37998;53.416;6.730;2022-09-09T00:24:54;15.90;99.90
51982;DHT22;37998;53.416;6.730;2022-09-09T00:30:31;15.80;99.90
51982;DHT22;37998;53.416;6.730;2022-09-09T00:33:03;15.80;99.90
51982;DHT22;37998;53.416;6.730;2022-09-09T00:35:45;15.80;99.90
51982;DHT22;37998;53.416;6.730;2022-09-09T00:38:35;15.80;99.90
51982;DHT22;37998;53.416;6.730;2022-09-09T00:41:14;15.80;99.90
51982;DHT22;37998;53.416;6.730;2022-09-09T00:43:53;15.70;99.90
51982;DHT22;37998;53.416;6.730;2022-09-09T00:52:11;15.60;99.90
51982;DHT22;37998;53.416;6.730;2022-09-09T01:02:53;15.40;99.90
51982;DHT22;37998;53.416;6.730;2022-09-09T01:05:46;15.40;99.90
51982;DHT22;37998;53.416;6.730;2022-09-09T01:10:54;15.40;99.90
51982;DHT22;37998;53.416;6.730;2022-09-09T01:13:25;15.40;99.90
51982;DHT22;37998;53.416;6.730;2022-09-09T01:15:51;15.30;99.90
51982;DHT22;37998;53.416;6.730;2022-09-09T01:18:21;15.30;99.90
51982;DHT22;37998;53.416;6.730;2022-09-09T01:23:58;15.30;99.90
51982;DHT22;37998;53.416;6.730;2022-09-09T01:26:36;15.30;99.90
51982;DHT22;37998;53.416;6.730;2022-09-09T01:29:02;15.20;99.90
51982;DHT22;37998;53.416;6.730;2022-09-09T01:31:38;15.20;99.90
51982;DHT22;37998;53.416;6.730;2022-09-09T01:34:31;15.10;99.90
51982;DHT22;37998;53.416;6.730;2022-09-09T01:37:09;15.20;99.90
51982;DHT22;37998;53.416;6.730;2022-09-09T01:39:38;15.10;99.90
51982;DHT22;37998;53.416;6.730;2022-09-09T01:42:07;15.10;99.90
51982;DHT22;37998;53.416;6.730;2022-09-09T01:44:34;15.10;99.90
51982;DHT22;37998;53.416;6.730;2022-09-09T01:47:01;15.10;99.90
51982;DHT22;37998;53.416;6.730;2022-09-09T01:49:27;15.10;99.90
51982;DHT22;37998;53.416;6.730;2022-09-09T01:51:55;15.10;99.90
51982;DHT22;37998;53.416;6.730;2022-09-09T01:54:23;15.00;99.90
51982;DHT22;37998;53.416;6.730;2022-09-09T02:02:29;14.90;99.90
51982;DHT22;37998;53.416;6.730;2022-09-09T02:07:50;14.90;99.90
51982;DHT22;37998;53.416;6.730;2022-09-09T02:10:24;14.90;99.90
51982;DHT22;37998;53.416;6.730;2022-09-09T02:13:26;15.00;99.90
51982;DHT22;37998;53.416;6.730;2022-09-09T02:16:10;14.90;99.90
51982;DHT22;37998;53.416;6.730;2022-09-09T02:18:38;14.90;99.90
51982;DHT22;37998;53.416;6.730;2022-09-09T02:21:06;14.80;99.90
51982;DHT22;37998;53.416;6.730;2022-09-09T02:23:33;14.80;99.90
51982;DHT22;37998;53.416;6.730;2022-09-09T02:26:00;14.90;99.90
51982;DHT22;37998;53.416;6.730;2022-09-09T02:28:28;14.90;99.90
51982;DHT22;37998;53.416;6.730;2022-09-09T02:30:55;14.90;99.90
51982;DHT22;37998;53.416;6.730;2022-09-09T02:33:30;14.80;99.90
51982;DHT22;37998;53.416;6.730;2022-09-09T02:35:59;14.90;99.90
51982;DHT22;37998;53.416;6.730;2022-09-09T02:38:32;14.80;99.90
51982;DHT22;37998;53.416;6.730;2022-09-09T02:40:58;14.80;99.90
51982;DHT22;37998;53.416;6.730;2022-09-09T02:43:24;14.80;99.90
51982;DHT22;37998;53.416;6.730;2022-09-09T02:45:57;14.80;99.90
51982;DHT22;37998;53.416;6.730;2022-09-09T02:48:40;14.80;99.90
51982;DHT22;37998;53.416;6.730;2022-09-09T02:51:18;14.80;99.90
51982;DHT22;37998;53.416;6.730;2022-09-09T02:53:56;14.70;99.90
51982;DHT22;37998;53.416;6.730;2022-09-09T02:56:27;14.70;99.90
51982;DHT22;37998;53.416;6.730;2022-09-09T02:58:55;14.70;99.90
51982;DHT22;37998;53.416;6.730;2022-09-09T03:01:21;14.70;99.90
51982;DHT22;37998;53.416;6.730;2022-09-09T03:03:47;14.60;99.90
51982;DHT22;37998;53.416;6.730;2022-09-09T03:06:13;14.70;99.90
51982;DHT22;37998;53.416;6.730;2022-09-09T03:08:40;14.60;99.90
51982;DHT22;37998;53.416;6.730;2022-09-09T03:11:05;14.60;99.90
51982;DHT22;37998;53.416;6.730;2022-09-09T03:13:32;14.70;99.90
51982;DHT22;37998;53.416;6.730;2022-09-09T03:15:58;14.60;99.90
51982;DHT22;37998;53.416;6.730;2022-09-09T03:18:24;14.60;99.90
51982;DHT22;37998;53.416;6.730;2022-09-09T03:20:50;14.60;99.90
51982;DHT22;37998;53.416;6.730;2022-09-09T03:23:16;14.60;99.90
51982;DHT22;37998;53.416;6.730;2022-09-09T03:25:49;14.50;99.90
51982;DHT22;37998;53.416;6.730;2022-09-09T03:28:15;14.50;99.90
51982;DHT22;37998;53.416;6.730;2022-09-09T03:30:40;14.50;99.90
51982;DHT22;37998;53.416;6.730;2022-09-09T03:33:06;14.40;99.90
51982;DHT22;37998;53.416;6.730;2022-09-09T03:35:32;14.30;99.90
51982;DHT22;37998;53.416;6.730;2022-09-09T03:37:57;14.40;99.90
51982;DHT22;37998;53.416;6.730;2022-09-09T03:40:23;14.30;99.90
51982;DHT22;37998;53.416;6.730;2022-09-09T03:42:49;14.40;99.90
51982;DHT22;37998;53.416;6.730;2022-09-09T03:45:14;14.30;99.90
51982;DHT22;37998;53.416;6.730;2022-09-09T03:47:40;14.30;99.90
51982;DHT22;37998;53.416;6.730;2022-09-09T03:50:07;14.30;99.90
51982;DHT22;37998;53.416;6.730;2022-09-09T03:52:39;14.30;99.90
51982;DHT22;37998;53.416;6.730;2022-09-09T03:55:06;14.40;99.90
51982;DHT22;37998;53.416;6.730;2022-09-09T03:57:32;14.40;99.90
51982;DHT22;37998;53.416;6.730;2022-09-09T04:00:04;14.40;99.90
51982;DHT22;37998;53.416;6.730;2022-09-09T04:02:30;14.40;99.90
51982;DHT22;37998;53.416;6.730;2022-09-09T04:04:56;14.50;99.90
51982;DHT22;37998;53.416;6.730;2022-09-09T04:07:21;14.50;99.90
51982;DHT22;37998;53.416;6.730;2022-09-09T04:09:47;14.50;99.90
51982;DHT22;37998;53.416;6.730;2022-09-09T04:12:13;14.50;99.90
51982;DHT22;37998;53.416;6.730;2022-09-09T04:14:39;14.50;99.90
51982;DHT22;37998;53.416;6.730;2022-09-09T04:17:05;14.50;99.90
51982;DHT22;37998;53.416;6.730;2022-09-09T04:19:32;14.50;99.90
51982;DHT22;37998;53.416;6.730;2022-09-09T04:21:58;14.60;99.90
51982;DHT22;37998;53.416;6.730;2022-09-09T04:24:24;14.60;99.90
51982;DHT22;37998;53.416;6.730;2022-09-09T04:26:51;14.70;99.90
51982;DHT22;37998;53.416;6.730;2022-09-09T04:29:17;14.70;99.90
51982;DHT22;37998;53.416;6.730;2022-09-09T04:31:43;14.70;99.90
51982;DHT22;37998;53.416;6.730;2022-09-09T04:34:09;14.80;99.90
51982;DHT22;37998;53.416;6.730;2022-09-09T04:36:35;14.80;99.90
51982;DHT22;37998;53.416;6.730;2022-09-09T04:39:01;14.90;99.90
51982;DHT22;37998;53.416;6.730;2022-09-09T04:41:27;14.70;99.90
51982;DHT22;37998;53.416;6.730;2022-09-09T04:43:53;14.80;99.90
51982;DHT22;37998;53.416;6.730;2022-09-09T04:46:20;14.80;99.90
51982;DHT22;37998;53.416;6.730;2022-09-09T04:48:46;14.80;99.90
51982;DHT22;37998;53.416;6.730;2022-09-09T04:51:14;14.70;99.90
51982;DHT22;37998;53.416;6.730;2022-09-09T04:53:39;14.80;99.90
51982;DHT22;37998;53.416;6.730;2022-09-09T04:56:11;14.80;99.90
51982;DHT22;37998;53.416;6.730;2022-09-09T04:58:38;14.80;99.90
51982;DHT22;37998;53.416;6.730;2022-09-09T05:01:16;14.90;99.90
51982;DHT22;37998;53.416;6.730;2022-09-09T05:03:43;15.00;99.90
51982;DHT22;37998;53.416;6.730;2022-09-09T05:06:15;14.90;99.90
51982;DHT22;37998;53.416;6.730;2022-09-09T05:08:42;15.00;99.90
51982;DHT22;37998;53.416;6.730;2022-09-09T05:11:24;15.00;99.90
51982;DHT22;37998;53.416;6.730;2022-09-09T05:13:51;15.10;99.90
51982;DHT22;37998;53.416;6.730;2022-09-09T05:16:18;15.10;99.90
51982;DHT22;37998;53.416;6.730;2022-09-09T05:18:44;15.10;99.90
51982;DHT22;37998;53.416;6.730;2022-09-09T05:21:12;15.10;99.90
51982;DHT22;37998;53.416;6.730;2022-09-09T05:23:38;15.20;99.90
51982;DHT22;37998;53.416;6.730;2022-09-09T05:26:04;15.20;99.90
51982;DHT22;37998;53.416;6.730;2022-09-09T05:28:30;15.20;99.90
51982;DHT22;37998;53.416;6.730;2022-09-09T05:31:01;15.20;99.90
51982;DHT22;37998;53.416;6.730;2022-09-09T05:33:29;15.20;99.90
51982;DHT22;37998;53.416;6.730;2022-09-09T05:35:56;15.30;99.90
51982;DHT22;37998;53.416;6.730;2022-09-09T05:38:22;15.30;99.90
51982;DHT22;37998;53.416;6.730;2022-09-09T05:40:51;15.30;99.90
51982;DHT22;37998;53.416;6.730;2022-09-09T05:43:20;15.20;99.90
51982;DHT22;37998;53.416;6.730;2022-09-09T05:46:05;15.30;99.90
51982;DHT22;37998;53.416;6.730;2022-09-09T05:48:33;15.30;99.90
51982;DHT22;37998;53.416;6.730;2022-09-09T05:51:00;15.20;99.90
51982;DHT22;37998;53.416;6.730;2022-09-09T05:53:26;15.30;99.90
51982;DHT22;37998;53.416;6.730;2022-09-09T05:56:03;15.40;99.90
51982;DHT22;37998;53.416;6.730;2022-09-09T05:58:34;15.30;99.90
51982;DHT22;37998;53.416;6.730;2022-09-09T06:01:11;15.30;99.90
51982;DHT22;37998;53.416;6.730;2022-09-09T06:03:38;15.30;99.90
51982;DHT22;37998;53.416;6.730;2022-09-09T06:06:07;15.30;99.90
51982;DHT22;37998;53.416;6.730;2022-09-09T06:08:38;15.30;99.90
51982;DHT22;37998;53.416;6.730;2022-09-09T06:11:16;15.30;99.90
51982;DHT22;37998;53.416;6.730;2022-09-09T06:13:42;15.30;99.90
51982;DHT22;37998;53.416;6.730;2022-09-09T06:16:09;15.30;99.90
51982;DHT22;37998;53.416;6.730;2022-09-09T06:18:37;15.20;99.90
51982;DHT22;37998;53.416;6.730;2022-09-09T06:21:05;15.30;99.90
51982;DHT22;37998;53.416;6.730;2022-09-09T06:23:33;15.30;99.90
51982;DHT22;37998;53.416;6.730;2022-09-09T06:28:34;15.30;99.90
51982;DHT22;37998;53.416;6.730;2022-09-09T06:31:01;15.30;99.90
51982;DHT22;37998;53.416;6.730;2022-09-09T06:33:31;15.40;99.90
51982;DHT22;37998;53.416;6.730;2022-09-09T06:35:58;15.30;99.90
51982;DHT22;37998;53.416;6.730;2022-09-09T06:38:24;15.30;99.90
51982;DHT22;37998;53.416;6.730;2022-09-09T06:40:54;15.30;99.90
51982;DHT22;37998;53.416;6.730;2022-09-09T06:43:24;15.40;99.90
51982;DHT22;37998;53.416;6.730;2022-09-09T06:48:39;15.50;99.90
51982;DHT22;37998;53.416;6.730;2022-09-09T06:53:37;15.40;99.90
51982;DHT22;37998;53.416;6.730;2022-09-09T06:58:36;15.50;99.90
51982;DHT22;37998;53.416;6.730;2022-09-09T07:01:06;15.50;99.90
51982;DHT22;37998;53.416;6.730;2022-09-09T07:03:32;15.60;99.90
51982;DHT22;37998;53.416;6.730;2022-09-09T07:05:59;15.60;99.90
51982;DHT22;37998;53.416;6.730;2022-09-09T07:08:25;15.60;99.90
51982;DHT22;37998;53.416;6.730;2022-09-09T07:10:54;15.60;99.90
51982;DHT22;37998;53.416;6.730;2022-09-09T07:13:26;15.70;99.90
51982;DHT22;37998;53.416;6.730;2022-09-09T07:15:52;15.70;99.90
51982;DHT22;37998;53.416;6.730;2022-09-09T07:18:19;15.70;99.90
51982;DHT22;37998;53.416;6.730;2022-09-09T07:20:54;15.70;99.90
51982;DHT22;37998;53.416;6.730;2022-09-09T07:23:20;15.80;99.90
51982;DHT22;37998;53.416;6.730;2022-09-09T07:25:46;15.80;99.90
51982;DHT22;37998;53.416;6.730;2022-09-09T07:28:13;15.80;99.90
51982;DHT22;37998;53.416;6.730;2022-09-09T07:30:39;15.80;99.90
51982;DHT22;37998;53.416;6.730;2022-09-09T07:33:06;15.90;99.90
51982;DHT22;37998;53.416;6.730;2022-09-09T07:35:32;15.90;99.90
51982;DHT22;37998;53.416;6.730;2022-09-09T07:38:00;16.00;99.90
51982;DHT22;37998;53.416;6.730;2022-09-09T07:40:26;16.00;99.90
51982;DHT22;37998;53.416;6.730;2022-09-09T07:42:52;16.00;99.90
51982;DHT22;37998;53.416;6.730;2022-09-09T07:45:18;16.10;99.90
51982;DHT22;37998;53.416;6.730;2022-09-09T07:47:44;16.10;99.90
51982;DHT22;37998;53.416;6.730;2022-09-09T07:50:10;16.20;99.90
51982;DHT22;37998;53.416;6.730;2022-09-09T07:52:36;16.30;99.90
51982;DHT22;37998;53.416;6.730;2022-09-09T07:55:02;16.30;99.90
51982;DHT22;37998;53.416;6.730;2022-09-09T07:57:29;16.40;99.90
51982;DHT22;37998;53.416;6.730;2022-09-09T07:59:56;16.60;99.90
51982;DHT22;37998;53.416;6.730;2022-09-09T08:02:23;16.60;99.90
51982;DHT22;37998;53.416;6.730;2022-09-09T08:04:49;16.80;99.90
51982;DHT22;37998;53.416;6.730;2022-09-09T08:07:15;16.80;99.90
51982;DHT22;37998;53.416;6.730;2022-09-09T08:09:41;16.90;99.90
51982;DHT22;37998;53.416;6.730;2022-09-09T08:12:07;16.90;99.90
51982;DHT22;37998;53.416;6.730;2022-09-09T08:14:33;17.00;99.90
51982;DHT22;37998;53.416;6.730;2022-09-09T08:16:59;17.00;99.90
51982;DHT22;37998;53.416;6.730;2022-09-09T08:19:25;17.10;99.90
51982;DHT22;37998;53.416;6.730;2022-09-09T08:21:50;17.00;99.90
51982;DHT22;37998;53.416;6.730;2022-09-09T08:24:16;17.10;99.90
51982;DHT22;37998;53.416;6.730;2022-09-09T08:26:44;17.10;99.90
51982;DHT22;37998;53.416;6.730;2022-09-09T08:29:11;17.20;99.90
51982;DHT22;37998;53.416;6.730;2022-09-09T08:31:52;18.40;99.90
51982;DHT22;37998;53.416;6.730;2022-09-09T08:34:20;17.40;99.90
51982;DHT22;37998;53.416;6.730;2022-09-09T08:36:47;17.40;99.90
51982;DHT22;37998;53.416;6.730;2022-09-09T08:39:15;17.50;99.90
51982;DHT22;37998;53.416;6.730;2022-09-09T08:44:41;17.60;99.90
51982;DHT22;37998;53.416;6.730;2022-09-09T08:50:34;17.90;99.90
51982;DHT22;37998;53.416;6.730;2022-09-09T08:53:23;18.00;99.90
51982;DHT22;37998;53.416;6.730;2022-09-09T08:56:02;18.20;99.90
51982;DHT22;37998;53.416;6.730;2022-09-09T08:58:33;18.30;99.90
51982;DHT22;37998;53.416;6.730;2022-09-09T09:09:02;18.80;99.90
51982;DHT22;37998;53.416;6.730;2022-09-09T09:11:38;18.90;99.90
51982;DHT22;37998;53.416;6.730;2022-09-09T09:14:18;19.00;99.90
51982;DHT22;37998;53.416;6.730;2022-09-09T09:17:10;19.00;99.90
51982;DHT22;37998;53.416;6.730;2022-09-09T09:19:39;19.20;99.90
51982;DHT22;37998;53.416;6.730;2022-09-09T09:25:11;19.30;99.90
51982;DHT22;37998;53.416;6.730;2022-09-09T09:28:10;19.40;99.90
51982;DHT22;37998;53.416;6.730;2022-09-09T09:30:44;19.40;99.90
51982;DHT22;37998;53.416;6.730;2022-09-09T09:35:58;19.50;99.90
51982;DHT22;37998;53.416;6.730;2022-09-09T09:38:26;19.50;99.90
51982;DHT22;37998;53.416;6.730;2022-09-09T09:40:55;19.50;99.90
51982;DHT22;37998;53.416;6.730;2022-09-09T09:43:27;19.60;99.90
51982;DHT22;37998;53.416;6.730;2022-09-09T09:45:53;19.70;99.90
51982;DHT22;37998;53.416;6.730;2022-09-09T09:48:19;19.60;99.90
51982;DHT22;37998;53.416;6.730;2022-09-09T09:50:54;19.70;99.90
51982;DHT22;37998;53.416;6.730;2022-09-09T09:53:29;19.80;99.90
51982;DHT22;37998;53.416;6.730;2022-09-09T09:58:23;20.10;99.90
51982;DHT22;37998;53.416;6.730;2022-09-09T10:00:50;20.10;99.90
51982;DHT22;37998;53.416;6.730;2022-09-09T10:05:55;20.20;99.90
51982;DHT22;37998;53.416;6.730;2022-09-09T10:08:26;20.20;99.90
51982;DHT22;37998;53.416;6.730;2022-09-09T10:11:17;20.20;99.90
51982;DHT22;37998;53.416;6.730;2022-09-09T10:16:46;20.40;99.90
51982;DHT22;37998;53.416;6.730;2022-09-09T10:19:31;20.50;99.90
51982;DHT22;37998;53.416;6.730;2022-09-09T10:33:18;20.40;99.90
51982;DHT22;37998;53.416;6.730;2022-09-09T10:38:43;20.30;99.90
51982;DHT22;37998;53.416;6.730;2022-09-09T10:46:59;20.00;99.90
51982;DHT22;37998;53.416;6.730;2022-09-09T10:49:40;20.00;99.90
51982;DHT22;37998;53.416;6.730;2022-09-09T10:52:21;20.00;99.90
51982;DHT22;37998;53.416;6.730;2022-09-09T10:57:35;20.20;99.90
51982;DHT22;37998;53.416;6.730;2022-09-09T11:00:24;20.30;99.90
51982;DHT22;37998;53.416;6.730;2022-09-09T11:03:01;20.50;99.90
51982;DHT22;37998;53.416;6.730;2022-09-09T11:05:41;20.70;99.90
51982;DHT22;37998;53.416;6.730;2022-09-09T11:08:17;20.80;99.90
51982;DHT22;37998;53.416;6.730;2022-09-09T11:11:02;20.90;99.90
51982;DHT22;37998;53.416;6.730;2022-09-09T11:13:46;21.00;99.90
51982;DHT22;37998;53.416;6.730;2022-09-09T11:16:29;21.00;99.90
51982;DHT22;37998;53.416;6.730;2022-09-09T11:19:03;21.20;99.90
51982;DHT22;37998;53.416;6.730;2022-09-09T11:21:38;21.30;99.90
51982;DHT22;37998;53.416;6.730;2022-09-09T11:40:16;21.10;99.90
51982;DHT22;37998;53.416;6.730;2022-09-09T11:42:45;21.00;99.90
51982;DHT22;37998;53.416;6.730;2022-09-09T11:45:26;20.80;99.90
51982;DHT22;37998;53.416;6.730;2022-09-09T11:47:58;20.50;99.90
51982;DHT22;37998;53.416;6.730;2022-09-09T11:52:50;20.20;99.90
51982;DHT22;37998;53.416;6.730;2022-09-09T11:55:35;20.10;99.90
51982;DHT22;37998;53.416;6.730;2022-09-09T11:58:04;20.10;99.90
51982;DHT22;37998;53.416;6.730;2022-09-09T12:03:09;20.10;99.90
51982;DHT22;37998;53.416;6.730;2022-09-09T12:05:52;20.20;99.90
51982;DHT22;37998;53.416;6.730;2022-09-09T12:08:26;20.40;99.90
51982;DHT22;37998;53.416;6.730;2022-09-09T12:10:55;20.70;99.90
51982;DHT22;37998;53.416;6.730;2022-09-09T12:13:23;20.70;99.90
51982;DHT22;37998;53.416;6.730;2022-09-09T12:15:55;20.80;99.90
51982;DHT22;37998;53.416;6.730;2022-09-09T12:18:31;20.90;99.90
51982;DHT22;37998;53.416;6.730;2022-09-09T12:21:19;21.20;99.90
51982;DHT22;37998;53.416;6.730;2022-09-09T12:23:56;21.10;99.90
51982;DHT22;37998;53.416;6.730;2022-09-09T12:31:51;21.80;99.90
51982;DHT22;37998;53.416;6.730;2022-09-09T12:34:34;21.80;99.90
51982;DHT22;37998;53.416;6.730;2022-09-09T12:39:49;21.50;99.90
51982;DHT22;37998;53.416;6.730;2022-09-09T12:42:21;21.50;99.90
51982;DHT22;37998;53.416;6.730;2022-09-09T12:44:55;21.50;99.90
51982;DHT22;37998;53.416;6.730;2022-09-09T12:47:27;21.50;99.90
51982;DHT22;37998;53.416;6.730;2022-09-09T12:49:54;21.30;99.90
51982;DHT22;37998;53.416;6.730;2022-09-09T12:52:32;21.20;99.90
51982;DHT22;37998;53.416;6.730;2022-09-09T12:55:02;21.20;99.90
51982;DHT22;37998;53.416;6.730;2022-09-09T12:57:34;21.00;99.90
51982;DHT22;37998;53.416;6.730;2022-09-09T13:00:16;21.10;99.90
51982;DHT22;37998;53.416;6.730;2022-09-09T13:02:51;21.00;99.90
51982;DHT22;37998;53.416;6.730;2022-09-09T13:05:28;21.10;99.90
51982;DHT22;37998;53.416;6.730;2022-09-09T13:08:02;21.20;99.90
51982;DHT22;37998;53.416;6.730;2022-09-09T13:10:32;21.30;99.90
51982;DHT22;37998;53.416;6.730;2022-09-09T13:12:59;21.40;99.90
51982;DHT22;37998;53.416;6.730;2022-09-09T13:15:28;21.40;99.90
51982;DHT22;37998;53.416;6.730;2022-09-09T13:18:01;21.30;99.90
51982;DHT22;37998;53.416;6.730;2022-09-09T13:20:28;21.20;99.90
51982;DHT22;37998;53.416;6.730;2022-09-09T13:22:55;21.20;99.90
51982;DHT22;37998;53.416;6.730;2022-09-09T13:25:25;22.30;99.90
51982;DHT22;37998;53.416;6.730;2022-09-09T13:30:33;21.50;99.90
51982;DHT22;37998;53.416;6.730;2022-09-09T13:33:06;21.40;99.90
51982;DHT22;37998;53.416;6.730;2022-09-09T13:38:18;21.50;99.90
51982;DHT22;37998;53.416;6.730;2022-09-09T13:40:54;21.50;99.70
51982;DHT22;37998;53.416;6.730;2022-09-09T13:43:24;21.70;99.20
51982;DHT22;37998;53.416;6.730;2022-09-09T13:45:54;21.70;98.90
51982;DHT22;37998;53.416;6.730;2022-09-09T13:48:21;21.70;98.80
51982;DHT22;37998;53.416;6.730;2022-09-09T13:50:58;21.70;98.80
51982;DHT22;37998;53.416;6.730;2022-09-09T13:53:25;21.80;98.60
51982;DHT22;37998;53.416;6.730;2022-09-09T13:55:51;21.80;98.70
51982;DHT22;37998;53.416;6.730;2022-09-09T13:58:17;21.90;98.80
51982;DHT22;37998;53.416;6.730;2022-09-09T14:00:45;21.80;98.80
51982;DHT22;37998;53.416;6.730;2022-09-09T14:03:11;21.90;98.50
51982;DHT22;37998;53.416;6.730;2022-09-09T14:05:37;21.90;98.50
51982;DHT22;37998;53.416;6.730;2022-09-09T14:08:07;22.60;98.60
51982;DHT22;37998;53.416;6.730;2022-09-09T14:10:33;21.90;98.40
51982;DHT22;37998;53.416;6.730;2022-09-09T14:13:01;21.80;98.50
51982;DHT22;37998;53.416;6.730;2022-09-09T14:15:27;21.70;98.60
51982;DHT22;37998;53.416;6.730;2022-09-09T14:17:54;21.70;98.70
51982;DHT22;37998;53.416;6.730;2022-09-09T14:20:19;21.70;98.60
51982;DHT22;37998;53.416;6.730;2022-09-09T14:22:45;21.70;98.90
51982;DHT22;37998;53.416;6.730;2022-09-09T14:25:11;21.70;98.30
51982;DHT22;37998;53.416;6.730;2022-09-09T14:27:39;21.80;98.00
51982;DHT22;37998;53.416;6.730;2022-09-09T14:30:06;21.80;98.00
51982;DHT22;37998;53.416;6.730;2022-09-09T14:32:32;21.70;98.00
51982;DHT22;37998;53.416;6.730;2022-09-09T14:34:58;21.60;98.20
51982;DHT22;37998;53.416;6.730;2022-09-09T14:37:24;21.50;98.30
51982;DHT22;37998;53.416;6.730;2022-09-09T14:39:49;21.40;98.50
51982;DHT22;37998;53.416;6.730;2022-09-09T14:42:16;21.30;98.70
51982;DHT22;37998;53.416;6.730;2022-09-09T14:44:42;21.20;99.90
51982;DHT22;37998;53.416;6.730;2022-09-09T14:47:08;21.00;99.90
51982;DHT22;37998;53.416;6.730;2022-09-09T14:49:37;20.80;99.90
51982;DHT22;37998;53.416;6.730;2022-09-09T14:52:04;20.80;99.90
51982;DHT22;37998;53.416;6.730;2022-09-09T14:54:30;20.70;99.90
51982;DHT22;37998;53.416;6.730;2022-09-09T14:56:56;20.80;99.90
51982;DHT22;37998;53.416;6.730;2022-09-09T14:59:23;20.80;99.90
51982;DHT22;37998;53.416;6.730;2022-09-09T15:01:48;20.90;99.90
51982;DHT22;37998;53.416;6.730;2022-09-09T15:04:14;20.90;99.90
51982;DHT22;37998;53.416;6.730;2022-09-09T15:06:42;20.90;99.90
51982;DHT22;37998;53.416;6.730;2022-09-09T15:09:10;20.90;99.90
51982;DHT22;37998;53.416;6.730;2022-09-09T15:11:37;21.00;99.90
51982;DHT22;37998;53.416;6.730;2022-09-09T15:14:07;20.90;99.90
51982;DHT22;37998;53.416;6.730;2022-09-09T15:16:33;21.00;99.90
51982;DHT22;37998;53.416;6.730;2022-09-09T15:19:00;20.90;99.90
51982;DHT22;37998;53.416;6.730;2022-09-09T15:21:31;20.90;99.90
51982;DHT22;37998;53.416;6.730;2022-09-09T15:23:57;20.80;99.90
51982;DHT22;37998;53.416;6.730;2022-09-09T15:26:23;20.70;99.90
51982;DHT22;37998;53.416;6.730;2022-09-09T15:28:49;20.60;99.90
51982;DHT22;37998;53.416;6.730;2022-09-09T15:31:21;20.50;99.90
51982;DHT22;37998;53.416;6.730;2022-09-09T15:36:25;20.00;99.90
51982;DHT22;37998;53.416;6.730;2022-09-09T15:38:52;19.80;99.90
51982;DHT22;37998;53.416;6.730;2022-09-09T15:41:19;19.50;99.90
51982;DHT22;37998;53.416;6.730;2022-09-09T15:43:47;19.40;99.90
51982;DHT22;37998;53.416;6.730;2022-09-09T15:48:43;19.10;99.90
51982;DHT22;37998;53.416;6.730;2022-09-09T15:51:11;19.20;99.90
51982;DHT22;37998;53.416;6.730;2022-09-09T15:53:38;19.10;99.90
51982;DHT22;37998;53.416;6.730;2022-09-09T15:56:07;19.00;99.90
51982;DHT22;37998;53.416;6.730;2022-09-09T15:58:34;19.10;99.90
51982;DHT22;37998;53.416;6.730;2022-09-09T16:01:04;19.20;99.90
51982;DHT22;37998;53.416;6.730;2022-09-09T16:03:34;19.30;99.90
51982;DHT22;37998;53.416;6.730;2022-09-09T16:06:00;19.40;99.90
51982;DHT22;37998;53.416;6.730;2022-09-09T16:08:35;19.40;99.90
51982;DHT22;37998;53.416;6.730;2022-09-09T16:11:28;19.50;99.90
51982;DHT22;37998;53.416;6.730;2022-09-09T16:13:55;19.60;99.90
51982;DHT22;37998;53.416;6.730;2022-09-09T16:16:26;19.60;99.90
51982;DHT22;37998;53.416;6.730;2022-09-09T16:18:54;19.60;99.90
51982;DHT22;37998;53.416;6.730;2022-09-09T16:21:35;19.50;99.90
51982;DHT22;37998;53.416;6.730;2022-09-09T16:24:03;19.50;99.90
51982;DHT22;37998;53.416;6.730;2022-09-09T16:26:31;19.60;99.90
51982;DHT22;37998;53.416;6.730;2022-09-09T16:28:57;19.60;99.90
51982;DHT22;37998;53.416;6.730;2022-09-09T16:31:25;19.50;99.90
51982;DHT22;37998;53.416;6.730;2022-09-09T16:33:51;19.50;99.90
51982;DHT22;37998;53.416;6.730;2022-09-09T16:36:27;19.40;99.90
51982;DHT22;37998;53.416;6.730;2022-09-09T16:38:54;19.40;99.90
51982;DHT22;37998;53.416;6.730;2022-09-09T16:41:27;19.40;99.90
51982;DHT22;37998;53.416;6.730;2022-09-09T16:44:01;19.40;99.90
51982;DHT22;37998;53.416;6.730;2022-09-09T16:46:28;19.40;99.90
51982;DHT22;37998;53.416;6.730;2022-09-09T16:48:56;19.40;99.90
51982;DHT22;37998;53.416;6.730;2022-09-09T16:51:26;20.30;99.90
51982;DHT22;37998;53.416;6.730;2022-09-09T16:53:53;19.40;99.90
51982;DHT22;37998;53.416;6.730;2022-09-09T16:56:23;19.30;99.90
51982;DHT22;37998;53.416;6.730;2022-09-09T16:58:55;19.30;99.90
51982;DHT22;37998;53.416;6.730;2022-09-09T17:01:22;19.30;99.90
51982;DHT22;37998;53.416;6.730;2022-09-09T17:03:55;19.30;99.90
51982;DHT22;37998;53.416;6.730;2022-09-09T17:06:21;19.30;99.90
51982;DHT22;37998;53.416;6.730;2022-09-09T17:08:47;19.20;99.90
51982;DHT22;37998;53.416;6.730;2022-09-09T17:11:18;19.20;99.90
51982;DHT22;37998;53.416;6.730;2022-09-09T17:13:46;19.20;99.90
51982;DHT22;37998;53.416;6.730;2022-09-09T17:16:13;19.20;99.90
51982;DHT22;37998;53.416;6.730;2022-09-09T17:18:40;19.10;99.90
51982;DHT22;37998;53.416;6.730;2022-09-09T17:21:08;19.10;99.90
51982;DHT22;37998;53.416;6.730;2022-09-09T17:23:35;19.10;99.90
51982;DHT22;37998;53.416;6.730;2022-09-09T17:26:04;19.00;99.90
51982;DHT22;37998;53.416;6.730;2022-09-09T17:28:31;19.00;99.90
51982;DHT22;37998;53.416;6.730;2022-09-09T17:31:00;19.00;99.90
51982;DHT22;37998;53.416;6.730;2022-09-09T17:33:35;19.00;99.90
51982;DHT22;37998;53.416;6.730;2022-09-09T17:36:09;19.00;99.90
51982;DHT22;37998;53.416;6.730;2022-09-09T17:38:37;18.90;99.90
51982;DHT22;37998;53.416;6.730;2022-09-09T17:43:42;18.90;99.90
51982;DHT22;37998;53.416;6.730;2022-09-09T17:46:13;18.90;99.90
51982;DHT22;37998;53.416;6.730;2022-09-09T17:48:40;18.90;99.90
51982;DHT22;37998;53.416;6.730;2022-09-09T17:51:08;18.90;99.90
51982;DHT22;37998;53.416;6.730;2022-09-09T17:53:42;18.90;99.90
51982;DHT22;37998;53.416;6.730;2022-09-09T17:56:10;18.90;99.90
51982;DHT22;37998;53.416;6.730;2022-09-09T17:58:37;18.80;99.90
51982;DHT22;37998;53.416;6.730;2022-09-09T18:01:09;18.80;99.90
51982;DHT22;37998;53.416;6.730;2022-09-09T18:03:36;18.70;99.90
51982;DHT22;37998;53.416;6.730;2022-09-09T18:06:07;18.70;99.90
51982;DHT22;37998;53.416;6.730;2022-09-09T18:08:34;18.60;99.90
51982;DHT22;37998;53.416;6.730;2022-09-09T18:11:01;18.50;99.90